sensor_id;sensor_type;location;lat;lon;timestamp;pressure;altitude;pressure_sealevel;temperature;humidity
28289;BME280;15558;50.874;6.964;2022-09-17T00:02:24;100863.88;;;15.59;65.05
28289;BME280;15558;50.874;6.964;2022-09-17T00:04:50;100862.38;;;15.62;65.03
28289;BME280;15558;50.874;6.964;2022-09-17T00:07:16;100857.91;;;15.61;64.76
28289;BME280;15558;50.874;6.964;2022-09-17T00:09:42;100854.91;;;15.57;64.64
28289;BME280;15558;50.874;6.964;2022-09-17T00:12:09;100864.06;;;15.63;64.58
28289;BME280;15558;50.874;6.964;2022-09-17T00:14:35;100865.91;;;15.67;64.22
28289;BME280;15558;50.874;6.964;2022-09-17T00:17:01;100875.38;;;15.63;64.83
28289;BME280;15558;50.874;6.964;2022-09-17T00:19:27;100856.91;;;15.65;64.72
28289;BME280;15558;50.874;6.964;2022-09-17T00:21:53;100862.75;;;15.69;64.72
28289;BME280;15558;50.874;6.964;2022-09-17T00:24:19;100858.09;;;15.73;65.10
28289;BME280;15558;50.874;6.964;2022-09-17T00:26:46;100863.91;;;15.68;65.16
28289;BME280;15558;50.874;6.964;2022-09-17T00:29:13;100857.75;;;15.74;64.89
28289;BME280;15558;50.874;6.964;2022-09-17T00:31:39;100861.44;;;15.75;64.77
28289;BME280;15558;50.874;6.964;2022-09-17T00:34:06;100853.25;;;15.65;64.79
28289;BME280;15558;50.874;6.964;2022-09-17T00:36:36;100858.59;;;15.66;65.36
28289;BME280;15558;50.874;6.964;2022-09-17T00:39:03;100853.75;;;15.67;64.85
28289;BME280;15558;50.874;6.964;2022-09-17T00:41:31;100851.25;;;15.65;65.02
28289;BME280;15558;50.874;6.964;2022-09-17T00:43:59;100866.09;;;15.71;65.08
28289;BME280;15558;50.874;6.964;2022-09-17T00:48:57;100852.25;;;15.69;64.54
28289;BME280;15558;50.874;6.964;2022-09-17T00:51:32;100855.59;;;15.71;65.24
28289;BME280;15558;50.874;6.964;2022-09-17T00:54:00;100857.25;;;15.80;65.15
28289;BME280;15558;50.874;6.964;2022-09-17T00:56:30;100858.63;;;15.75;65.42
28289;BME280;15558;50.874;6.964;2022-09-17T00:58:59;100867.09;;;15.75;65.30
28289;BME280;15558;50.874;6.964;2022-09-17T01:01:26;100861.75;;;15.73;65.42
28289;BME280;15558;50.874;6.964;2022-09-17T01:03:51;100861.59;;;15.78;65.22
28289;BME280;15558;50.874;6.964;2022-09-17T01:06:32;100862.41;;;15.70;65.49
28289;BME280;15558;50.874;6.964;2022-09-17T01:17:39;100868.75;;;15.67;65.76
28289;BME280;15558;50.874;6.964;2022-09-17T01:25:29;100875.25;;;15.76;65.88
28289;BME280;15558;50.874;6.964;2022-09-17T01:30:42;100872.41;;;15.68;65.87
28289;BME280;15558;50.874;6.964;2022-09-17T01:33:41;100875.41;;;15.71;65.76
28289;BME280;15558;50.874;6.964;2022-09-17T01:45:01;100876.03;;;15.60;65.82
28289;BME280;15558;50.874;6.964;2022-09-17T01:47:37;100871.88;;;15.57;65.75
28289;BME280;15558;50.874;6.964;2022-09-17T01:50:10;100873.41;;;15.72;65.75
28289;BME280;15558;50.874;6.964;2022-09-17T01:52:39;100886.53;;;15.59;66.27
28289;BME280;15558;50.874;6.964;2022-09-17T01:55:10;100881.69;;;15.60;66.42
28289;BME280;15558;50.874;6.964;2022-09-17T01:57:43;100890.66;;;15.53;66.08
28289;BME280;15558;50.874;6.964;2022-09-17T02:00:13;100888.72;;;15.62;66.17
28289;BME280;15558;50.874;6.964;2022-09-17T02:02:50;100883.34;;;15.52;66.12
28289;BME280;15558;50.874;6.964;2022-09-17T02:05:23;100884.19;;;15.53;66.01
28289;BME280;15558;50.874;6.964;2022-09-17T02:07:58;100885.50;;;15.47;66.52
28289;BME280;15558;50.874;6.964;2022-09-17T02:10:30;100886.47;;;15.43;66.88
28289;BME280;15558;50.874;6.964;2022-09-17T02:13:02;100905.44;;;15.42;67.05
28289;BME280;15558;50.874;6.964;2022-09-17T02:15:37;100893.47;;;15.45;66.45
28289;BME280;15558;50.874;6.964;2022-09-17T02:20:53;100901.59;;;15.38;66.88
28289;BME280;15558;50.874;6.964;2022-09-17T02:23:24;100901.59;;;15.38;67.00
28289;BME280;15558;50.874;6.964;2022-09-17T02:25:56;100889.50;;;15.46;67.24
28289;BME280;15558;50.874;6.964;2022-09-17T02:30:53;100898.28;;;15.36;67.02
28289;BME280;15558;50.874;6.964;2022-09-17T02:33:19;100898.44;;;15.31;67.15
28289;BME280;15558;50.874;6.964;2022-09-17T02:35:45;100901.91;;;15.28;66.90
28289;BME280;15558;50.874;6.964;2022-09-17T02:38:12;100897.56;;;15.31;67.28
28289;BME280;15558;50.874;6.964;2022-09-17T02:40:46;100899.44;;;15.35;67.05
28289;BME280;15558;50.874;6.964;2022-09-17T02:54:20;100897.00;;;15.50;67.19
28289;BME280;15558;50.874;6.964;2022-09-17T02:59:35;100908.81;;;15.52;67.02
28289;BME280;15558;50.874;6.964;2022-09-17T03:02:21;100906.22;;;15.73;65.98
28289;BME280;15558;50.874;6.964;2022-09-17T03:04:49;100895.03;;;15.68;66.39
28289;BME280;15558;50.874;6.964;2022-09-17T03:07:17;100898.66;;;15.60;67.18
28289;BME280;15558;50.874;6.964;2022-09-17T03:09:43;100902.16;;;15.57;67.58
28289;BME280;15558;50.874;6.964;2022-09-17T03:12:10;100904.00;;;15.61;67.34
28289;BME280;15558;50.874;6.964;2022-09-17T03:14:36;100903.19;;;15.61;67.36
28289;BME280;15558;50.874;6.964;2022-09-17T03:17:02;100902.50;;;15.55;67.65
28289;BME280;15558;50.874;6.964;2022-09-17T03:19:29;100910.66;;;15.57;67.73
28289;BME280;15558;50.874;6.964;2022-09-17T03:21:55;100907.00;;;15.56;68.19
28289;BME280;15558;50.874;6.964;2022-09-17T03:24:21;100906.63;;;15.49;67.79
28289;BME280;15558;50.874;6.964;2022-09-17T03:26:47;100905.16;;;15.52;68.33
28289;BME280;15558;50.874;6.964;2022-09-17T03:29:14;100906.13;;;15.47;68.40
28289;BME280;15558;50.874;6.964;2022-09-17T03:31:40;100900.47;;;15.47;67.96
28289;BME280;15558;50.874;6.964;2022-09-17T03:34:06;100911.78;;;15.47;68.52
28289;BME280;15558;50.874;6.964;2022-09-17T03:36:32;100912.78;;;15.51;68.55
28289;BME280;15558;50.874;6.964;2022-09-17T03:38:59;100915.47;;;15.48;68.55
28289;BME280;15558;50.874;6.964;2022-09-17T03:41:26;100908.00;;;15.52;68.62
28289;BME280;15558;50.874;6.964;2022-09-17T03:43:52;100919.47;;;15.55;68.66
28289;BME280;15558;50.874;6.964;2022-09-17T03:46:18;100913.50;;;15.57;67.74
28289;BME280;15558;50.874;6.964;2022-09-17T03:48:44;100921.63;;;15.50;68.14
28289;BME280;15558;50.874;6.964;2022-09-17T03:51:10;100916.63;;;15.55;68.11
28289;BME280;15558;50.874;6.964;2022-09-17T03:53:37;100916.78;;;15.50;67.99
28289;BME280;15558;50.874;6.964;2022-09-17T03:56:05;100919.94;;;15.49;68.24
28289;BME280;15558;50.874;6.964;2022-09-17T03:58:31;100920.78;;;15.49;67.91
28289;BME280;15558;50.874;6.964;2022-09-17T04:00:58;100917.78;;;15.46;68.01
28289;BME280;15558;50.874;6.964;2022-09-17T04:03:25;100919.78;;;15.45;68.03
28289;BME280;15558;50.874;6.964;2022-09-17T04:05:52;100921.63;;;15.50;68.35
28289;BME280;15558;50.874;6.964;2022-09-17T04:08:18;100910.78;;;15.44;67.79
28289;BME280;15558;50.874;6.964;2022-09-17T04:10:44;100921.91;;;15.40;68.45
28289;BME280;15558;50.874;6.964;2022-09-17T04:13:11;100922.94;;;15.44;68.46
28289;BME280;15558;50.874;6.964;2022-09-17T04:15:37;100931.97;;;15.54;67.86
28289;BME280;15558;50.874;6.964;2022-09-17T04:18:03;100932.59;;;15.51;68.14
28289;BME280;15558;50.874;6.964;2022-09-17T04:20:29;100929.75;;;15.51;68.09
28289;BME280;15558;50.874;6.964;2022-09-17T04:22:56;100934.75;;;15.46;68.01
28289;BME280;15558;50.874;6.964;2022-09-17T04:25:22;100925.25;;;15.42;68.35
28289;BME280;15558;50.874;6.964;2022-09-17T04:27:48;100930.72;;;15.39;68.32
28289;BME280;15558;50.874;6.964;2022-09-17T04:30:15;100921.25;;;15.43;68.63
28289;BME280;15558;50.874;6.964;2022-09-17T04:32:42;100935.78;;;15.50;68.22
28289;BME280;15558;50.874;6.964;2022-09-17T04:35:09;100941.72;;;15.40;68.51
28289;BME280;15558;50.874;6.964;2022-09-17T04:37:35;100937.72;;;15.41;68.23
28289;BME280;15558;50.874;6.964;2022-09-17T04:40:02;100939.72;;;15.41;68.63
28289;BME280;15558;50.874;6.964;2022-09-17T04:42:28;100939.41;;;15.42;68.10
28289;BME280;15558;50.874;6.964;2022-09-17T04:44:54;100939.53;;;15.37;68.32
28289;BME280;15558;50.874;6.964;2022-09-17T04:47:20;100942.50;;;15.32;68.19
28289;BME280;15558;50.874;6.964;2022-09-17T04:49:46;100942.53;;;15.41;68.28
28289;BME280;15558;50.874;6.964;2022-09-17T04:52:12;100942.31;;;15.29;68.22
28289;BME280;15558;50.874;6.964;2022-09-17T04:54:38;100947.69;;;15.39;68.06
28289;BME280;15558;50.874;6.964;2022-09-17T04:57:04;100949.34;;;15.31;68.87
28289;BME280;15558;50.874;6.964;2022-09-17T04:59:30;100947.84;;;15.34;68.99
28289;BME280;15558;50.874;6.964;2022-09-17T05:01:56;100947.19;;;15.37;68.29
28289;BME280;15558;50.874;6.964;2022-09-17T05:04:22;100953.81;;;15.32;68.83
28289;BME280;15558;50.874;6.964;2022-09-17T05:06:48;100961.66;;;15.35;68.65
28289;BME280;15558;50.874;6.964;2022-09-17T05:09:14;100953.19;;;15.35;68.70
28289;BME280;15558;50.874;6.964;2022-09-17T05:11:40;100952.31;;;15.35;68.42
28289;BME280;15558;50.874;6.964;2022-09-17T05:14:06;100956.34;;;15.34;68.79
28289;BME280;15558;50.874;6.964;2022-09-17T05:16:32;100956.69;;;15.41;68.02
28289;BME280;15558;50.874;6.964;2022-09-17T05:18:58;100953.31;;;15.30;68.23
28289;BME280;15558;50.874;6.964;2022-09-17T05:21:24;100954.66;;;15.33;68.29
28289;BME280;15558;50.874;6.964;2022-09-17T05:23:50;100962.63;;;15.31;67.94
28289;BME280;15558;50.874;6.964;2022-09-17T05:26:16;100956.97;;;15.31;68.74
28289;BME280;15558;50.874;6.964;2022-09-17T05:28:42;100961.78;;;15.30;68.69
28289;BME280;15558;50.874;6.964;2022-09-17T05:31:08;100965.13;;;15.32;68.40
28289;BME280;15558;50.874;6.964;2022-09-17T05:33:34;100957.66;;;15.36;68.07
28289;BME280;15558;50.874;6.964;2022-09-17T05:36:00;100961.00;;;15.38;68.44
28289;BME280;15558;50.874;6.964;2022-09-17T05:38:26;100960.50;;;15.36;68.34
28289;BME280;15558;50.874;6.964;2022-09-17T05:40:52;100971.66;;;15.41;68.14
28289;BME280;15558;50.874;6.964;2022-09-17T05:43:18;100963.16;;;15.41;68.08
28289;BME280;15558;50.874;6.964;2022-09-17T05:45:44;100970.47;;;15.34;68.13
28289;BME280;15558;50.874;6.964;2022-09-17T05:48:12;100977.47;;;15.36;68.51
28289;BME280;15558;50.874;6.964;2022-09-17T05:50:39;100982.63;;;15.34;68.50
28289;BME280;15558;50.874;6.964;2022-09-17T05:53:14;100977.78;;;15.35;68.41
28289;BME280;15558;50.874;6.964;2022-09-17T05:55:40;100985.13;;;15.36;68.60
28289;BME280;15558;50.874;6.964;2022-09-17T05:58:13;100985.59;;;15.29;68.55
28289;BME280;15558;50.874;6.964;2022-09-17T06:00:40;100987.59;;;15.37;68.29
28289;BME280;15558;50.874;6.964;2022-09-17T06:03:11;100996.41;;;15.27;68.97
28289;BME280;15558;50.874;6.964;2022-09-17T06:05:38;100999.06;;;15.32;68.82
28289;BME280;15558;50.874;6.964;2022-09-17T06:08:04;101001.63;;;15.42;68.83
28289;BME280;15558;50.874;6.964;2022-09-17T06:10:31;100998.38;;;15.57;68.53
28289;BME280;15558;50.874;6.964;2022-09-17T06:12:57;101011.03;;;15.59;67.91
28289;BME280;15558;50.874;6.964;2022-09-17T06:15:25;101011.34;;;15.58;67.91
28289;BME280;15558;50.874;6.964;2022-09-17T06:17:51;101003.91;;;15.70;68.21
28289;BME280;15558;50.874;6.964;2022-09-17T06:20:18;100997.56;;;15.65;68.17
28289;BME280;15558;50.874;6.964;2022-09-17T06:22:44;101001.03;;;15.62;68.38
28289;BME280;15558;50.874;6.964;2022-09-17T06:25:11;101005.81;;;15.83;67.73
28289;BME280;15558;50.874;6.964;2022-09-17T06:27:37;101000.00;;;15.88;67.43
28289;BME280;15558;50.874;6.964;2022-09-17T06:30:04;101010.84;;;16.03;67.50
28289;BME280;15558;50.874;6.964;2022-09-17T06:32:31;101003.72;;;16.13;67.23
28289;BME280;15558;50.874;6.964;2022-09-17T06:34:57;101000.09;;;16.21;66.37
28289;BME280;15558;50.874;6.964;2022-09-17T06:37:31;100995.13;;;16.27;66.32
28289;BME280;15558;50.874;6.964;2022-09-17T06:39:57;101009.81;;;16.29;65.73
28289;BME280;15558;50.874;6.964;2022-09-17T06:42:26;100994.66;;;16.42;65.91
28289;BME280;15558;50.874;6.964;2022-09-17T06:44:53;101003.66;;;16.52;65.08
28289;BME280;15558;50.874;6.964;2022-09-17T06:47:19;101008.81;;;16.50;64.82
28289;BME280;15558;50.874;6.964;2022-09-17T06:49:45;101011.47;;;16.47;64.63
28289;BME280;15558;50.874;6.964;2022-09-17T06:52:11;101013.97;;;16.48;65.06
28289;BME280;15558;50.874;6.964;2022-09-17T06:54:37;101016.50;;;16.50;64.30
28289;BME280;15558;50.874;6.964;2022-09-17T06:57:04;101019.00;;;16.51;64.50
28289;BME280;15558;50.874;6.964;2022-09-17T06:59:30;101023.31;;;16.49;64.57
28289;BME280;15558;50.874;6.964;2022-09-17T07:01:56;101035.16;;;16.50;63.93
28289;BME280;15558;50.874;6.964;2022-09-17T07:04:22;101033.31;;;16.54;63.69
28289;BME280;15558;50.874;6.964;2022-09-17T07:06:48;101042.13;;;16.36;63.77
28289;BME280;15558;50.874;6.964;2022-09-17T07:09:14;101038.34;;;16.49;63.64
28289;BME280;15558;50.874;6.964;2022-09-17T07:11:40;101027.00;;;16.49;63.95
28289;BME280;15558;50.874;6.964;2022-09-17T07:14:06;101031.66;;;16.45;64.41
28289;BME280;15558;50.874;6.964;2022-09-17T07:16:32;101040.81;;;16.42;64.01
28289;BME280;15558;50.874;6.964;2022-09-17T07:18:59;101037.66;;;16.44;64.25
28289;BME280;15558;50.874;6.964;2022-09-17T07:21:25;101035.81;;;16.39;64.00
28289;BME280;15558;50.874;6.964;2022-09-17T07:23:51;101040.16;;;16.37;64.17
28289;BME280;15558;50.874;6.964;2022-09-17T07:26:17;101043.47;;;16.39;64.53
28289;BME280;15558;50.874;6.964;2022-09-17T07:28:43;101040.16;;;16.37;64.08
28289;BME280;15558;50.874;6.964;2022-09-17T07:31:11;101041.16;;;16.41;64.45
28289;BME280;15558;50.874;6.964;2022-09-17T07:33:38;101037.97;;;16.42;64.32
28289;BME280;15558;50.874;6.964;2022-09-17T07:36:06;101047.81;;;16.45;64.88
28289;BME280;15558;50.874;6.964;2022-09-17T07:38:33;101044.66;;;16.54;64.24
28289;BME280;15558;50.874;6.964;2022-09-17T07:41:05;101044.16;;;16.52;63.95
28289;BME280;15558;50.874;6.964;2022-09-17T07:43:33;101038.50;;;16.52;64.00
28289;BME280;15558;50.874;6.964;2022-09-17T07:46:00;101036.47;;;16.45;64.67
28289;BME280;15558;50.874;6.964;2022-09-17T07:48:28;101038.50;;;16.52;63.50
28289;BME280;15558;50.874;6.964;2022-09-17T07:50:55;101042.84;;;16.58;63.95
28289;BME280;15558;50.874;6.964;2022-09-17T07:53:21;101034.50;;;16.70;64.35
28289;BME280;15558;50.874;6.964;2022-09-17T07:55:54;101036.66;;;16.73;64.04
28289;BME280;15558;50.874;6.964;2022-09-17T07:58:23;101041.00;;;16.87;63.10
28289;BME280;15558;50.874;6.964;2022-09-17T08:00:52;101041.84;;;16.96;63.17
28289;BME280;15558;50.874;6.964;2022-09-17T08:03:18;101029.34;;;16.97;62.58
28289;BME280;15558;50.874;6.964;2022-09-17T08:05:44;101023.16;;;17.12;62.62
28289;BME280;15558;50.874;6.964;2022-09-17T08:08:10;101032.81;;;17.45;62.04
28289;BME280;15558;50.874;6.964;2022-09-17T08:10:36;101037.59;;;17.61;61.57
28289;BME280;15558;50.874;6.964;2022-09-17T08:13:03;101046.19;;;17.81;59.52
28289;BME280;15558;50.874;6.964;2022-09-17T08:15:29;101034.78;;;17.90;58.84
28289;BME280;15558;50.874;6.964;2022-09-17T08:17:55;101032.31;;;17.88;59.47
28289;BME280;15558;50.874;6.964;2022-09-17T08:20:21;101034.91;;;18.01;58.79
28289;BME280;15558;50.874;6.964;2022-09-17T08:22:48;101036.53;;;18.19;58.82
28289;BME280;15558;50.874;6.964;2022-09-17T08:25:14;101032.63;;;18.32;58.25
28289;BME280;15558;50.874;6.964;2022-09-17T08:27:40;101037.25;;;18.36;57.84
28289;BME280;15558;50.874;6.964;2022-09-17T08:30:06;101029.06;;;18.35;56.65
28289;BME280;15558;50.874;6.964;2022-09-17T08:32:33;101032.00;;;18.47;57.77
28289;BME280;15558;50.874;6.964;2022-09-17T08:34:59;101032.19;;;18.70;57.39
28289;BME280;15558;50.874;6.964;2022-09-17T08:37:27;101028.56;;;18.82;56.88
28289;BME280;15558;50.874;6.964;2022-09-17T08:39:55;101033.84;;;18.71;55.68
28289;BME280;15558;50.874;6.964;2022-09-17T08:42:36;101031.06;;;18.63;55.48
28289;BME280;15558;50.874;6.964;2022-09-17T08:45:09;101034.25;;;18.62;54.99
28289;BME280;15558;50.874;6.964;2022-09-17T08:47:41;101039.69;;;18.75;55.27
28289;BME280;15558;50.874;6.964;2022-09-17T08:50:32;101048.56;;;18.94;55.72
28289;BME280;15558;50.874;6.964;2022-09-17T08:55:50;101041.72;;;19.59;53.99
28289;BME280;15558;50.874;6.964;2022-09-17T09:01:33;101033.47;;;19.77;52.31
28289;BME280;15558;50.874;6.964;2022-09-17T09:04:17;101040.78;;;19.87;51.97
28289;BME280;15558;50.874;6.964;2022-09-17T09:06:53;101027.00;;;19.89;53.06
28289;BME280;15558;50.874;6.964;2022-09-17T09:09:25;101022.72;;;20.06;52.12
28289;BME280;15558;50.874;6.964;2022-09-17T09:11:59;101023.22;;;20.08;52.02
28289;BME280;15558;50.874;6.964;2022-09-17T09:17:17;101022.50;;;20.35;51.01
28289;BME280;15558;50.874;6.964;2022-09-17T09:19:46;101018.47;;;20.60;49.47
28289;BME280;15558;50.874;6.964;2022-09-17T09:22:51;101031.03;;;20.82;48.44
28289;BME280;15558;50.874;6.964;2022-09-17T09:25:20;101027.22;;;20.90;48.29
28289;BME280;15558;50.874;6.964;2022-09-17T09:28:09;101022.25;;;20.76;48.23
28289;BME280;15558;50.874;6.964;2022-09-17T09:31:11;101025.13;;;20.64;48.56
28289;BME280;15558;50.874;6.964;2022-09-17T09:33:42;101020.34;;;20.56;48.13
28289;BME280;15558;50.874;6.964;2022-09-17T09:36:13;101027.03;;;20.36;49.55
28289;BME280;15558;50.874;6.964;2022-09-17T09:38:50;101017.50;;;20.68;48.84
28289;BME280;15558;50.874;6.964;2022-09-17T09:41:43;101011.06;;;20.71;47.94
28289;BME280;15558;50.874;6.964;2022-09-17T09:44:11;101028.53;;;20.81;49.28
28289;BME280;15558;50.874;6.964;2022-09-17T09:49:47;101021.03;;;20.76;48.22
28289;BME280;15558;50.874;6.964;2022-09-17T09:56:08;101021.25;;;20.83;47.50
28289;BME280;15558;50.874;6.964;2022-09-17T10:00:54;101017.75;;;20.39;49.53
28289;BME280;15558;50.874;6.964;2022-09-17T10:03:40;101017.75;;;20.63;49.61
28289;BME280;15558;50.874;6.964;2022-09-17T10:06:08;101015.34;;;20.76;48.55
28289;BME280;15558;50.874;6.964;2022-09-17T10:08:41;101014.22;;;20.93;49.39
28289;BME280;15558;50.874;6.964;2022-09-17T10:11:22;101009.19;;;21.41;47.49
28289;BME280;15558;50.874;6.964;2022-09-17T10:13:48;101005.03;;;21.38;47.63
28289;BME280;15558;50.874;6.964;2022-09-17T10:16:15;101006.72;;;21.27;45.67
28289;BME280;15558;50.874;6.964;2022-09-17T10:18:43;101008.97;;;21.07;48.17
28289;BME280;15558;50.874;6.964;2022-09-17T10:21:33;101013.28;;;20.89;47.26
28289;BME280;15558;50.874;6.964;2022-09-17T10:24:01;101011.81;;;20.68;45.75
28289;BME280;15558;50.874;6.964;2022-09-17T10:26:31;101024.19;;;20.60;46.30
28289;BME280;15558;50.874;6.964;2022-09-17T10:28:59;101011.72;;;20.91;46.06
28289;BME280;15558;50.874;6.964;2022-09-17T10:31:27;100997.56;;;21.22;44.38
28289;BME280;15558;50.874;6.964;2022-09-17T10:34:02;100997.28;;;21.11;44.03
28289;BME280;15558;50.874;6.964;2022-09-17T10:36:43;101007.19;;;21.29;45.02
28289;BME280;15558;50.874;6.964;2022-09-17T10:39:30;101002.31;;;21.57;44.70
28289;BME280;15558;50.874;6.964;2022-09-17T10:44:36;100990.28;;;21.94;42.34
28289;BME280;15558;50.874;6.964;2022-09-17T10:47:13;100988.03;;;21.57;43.55
28289;BME280;15558;50.874;6.964;2022-09-17T10:49:48;100993.28;;;21.55;44.87
28289;BME280;15558;50.874;6.964;2022-09-17T10:52:23;100986.50;;;21.75;45.32
28289;BME280;15558;50.874;6.964;2022-09-17T10:57:34;100975.34;;;22.16;45.97
28289;BME280;15558;50.874;6.964;2022-09-17T11:00:18;100968.50;;;22.20;44.29
28289;BME280;15558;50.874;6.964;2022-09-17T11:08:09;100980.94;;;21.82;45.21
28289;BME280;15558;50.874;6.964;2022-09-17T11:10:48;100973.84;;;21.76;45.64
28289;BME280;15558;50.874;6.964;2022-09-17T11:13:44;100970.25;;;22.09;45.39
28289;BME280;15558;50.874;6.964;2022-09-17T11:19:07;100966.81;;;22.50;43.59
28289;BME280;15558;50.874;6.964;2022-09-17T11:21:39;100973.38;;;22.35;41.85
28289;BME280;15558;50.874;6.964;2022-09-17T11:26:45;100972.22;;;22.54;41.54
28289;BME280;15558;50.874;6.964;2022-09-17T11:29:44;100964.50;;;22.74;41.14
28289;BME280;15558;50.874;6.964;2022-09-17T11:32:30;100974.03;;;22.96;41.95
28289;BME280;15558;50.874;6.964;2022-09-17T11:37:55;100971.13;;;23.12;40.58
28289;BME280;15558;50.874;6.964;2022-09-17T11:45:56;100966.31;;;22.97;40.32
28289;BME280;15558;50.874;6.964;2022-09-17T11:54:19;101033.25;;;21.01;48.75
28289;BME280;15558;50.874;6.964;2022-09-17T11:56:50;101016.09;;;20.62;52.18
28289;BME280;15558;50.874;6.964;2022-09-17T12:04:44;101005.28;;;19.52;56.57
28289;BME280;15558;50.874;6.964;2022-09-17T12:07:24;101006.19;;;19.33;57.34
28289;BME280;15558;50.874;6.964;2022-09-17T12:09:57;101006.69;;;19.46;58.77
28289;BME280;15558;50.874;6.964;2022-09-17T12:12:26;101003.06;;;19.69;59.08
28289;BME280;15558;50.874;6.964;2022-09-17T12:14:57;100996.63;;;19.93;58.48
28289;BME280;15558;50.874;6.964;2022-09-17T12:17:43;100999.47;;;20.28;60.32
28289;BME280;15558;50.874;6.964;2022-09-17T12:20:41;100985.41;;;20.71;59.95
28289;BME280;15558;50.874;6.964;2022-09-17T12:23:13;100988.56;;;20.81;58.43
28289;BME280;15558;50.874;6.964;2022-09-17T12:25:50;100976.31;;;20.92;59.29
28289;BME280;15558;50.874;6.964;2022-09-17T12:28:30;100975.31;;;21.00;54.68
28289;BME280;15558;50.874;6.964;2022-09-17T12:31:14;100977.72;;;20.98;56.72
28289;BME280;15558;50.874;6.964;2022-09-17T12:33:53;100974.75;;;20.95;55.58
28289;BME280;15558;50.874;6.964;2022-09-17T12:36:39;100977.94;;;20.93;54.49
28289;BME280;15558;50.874;6.964;2022-09-17T12:53:05;100995.59;;;19.53;59.61
28289;BME280;15558;50.874;6.964;2022-09-17T13:04:09;100964.75;;;19.23;63.25
28289;BME280;15558;50.874;6.964;2022-09-17T13:16:47;100931.72;;;19.54;64.91
28289;BME280;15558;50.874;6.964;2022-09-17T13:19:10;100926.56;;;19.80;64.16
28289;BME280;15558;50.874;6.964;2022-09-17T13:22:03;100924.44;;;19.89;64.40
28289;BME280;15558;50.874;6.964;2022-09-17T13:24:32;100932.13;;;19.88;60.81
28289;BME280;15558;50.874;6.964;2022-09-17T13:26:59;100935.25;;;20.07;61.28
28289;BME280;15558;50.874;6.964;2022-09-17T13:40:24;101021.72;;;19.03;58.36
28289;BME280;15558;50.874;6.964;2022-09-17T13:42:56;101018.56;;;18.56;56.61
28289;BME280;15558;50.874;6.964;2022-09-17T13:45:24;101010.34;;;18.05;57.94
28289;BME280;15558;50.874;6.964;2022-09-17T13:47:54;100995.06;;;17.81;59.01
28289;BME280;15558;50.874;6.964;2022-09-17T13:50:29;100998.38;;;17.46;61.29
28289;BME280;15558;50.874;6.964;2022-09-17T13:53:20;100991.94;;;17.29;61.85
28289;BME280;15558;50.874;6.964;2022-09-17T13:55:55;100991.94;;;17.29;62.98
28289;BME280;15558;50.874;6.964;2022-09-17T13:58:28;100988.06;;;17.33;63.92
28289;BME280;15558;50.874;6.964;2022-09-17T14:01:10;100980.88;;;17.36;64.22
28289;BME280;15558;50.874;6.964;2022-09-17T14:14:38;100968.09;;;17.22;65.90
28289;BME280;15558;50.874;6.964;2022-09-17T14:17:02;100968.53;;;17.40;65.54
28289;BME280;15558;50.874;6.964;2022-09-17T14:27:09;100971.72;;;17.76;66.17
28289;BME280;15558;50.874;6.964;2022-09-17T14:29:52;100962.84;;;17.86;66.06
28289;BME280;15558;50.874;6.964;2022-09-17T14:32:27;100965.19;;;17.84;67.05
28289;BME280;15558;50.874;6.964;2022-09-17T14:34:59;100967.00;;;17.88;66.78
28289;BME280;15558;50.874;6.964;2022-09-17T14:37:26;100967.13;;;17.91;67.51
28289;BME280;15558;50.874;6.964;2022-09-17T14:39:53;100955.59;;;17.96;67.68
28289;BME280;15558;50.874;6.964;2022-09-17T14:42:26;100956.91;;;17.99;68.07
28289;BME280;15558;50.874;6.964;2022-09-17T14:44:59;100965.75;;;17.97;68.83
28289;BME280;15558;50.874;6.964;2022-09-17T14:47:26;100988.97;;;17.99;69.53
28289;BME280;15558;50.874;6.964;2022-09-17T14:49:53;101025.72;;;18.04;69.71
28289;BME280;15558;50.874;6.964;2022-09-17T14:52:29;101014.81;;;17.78;67.83
28289;BME280;15558;50.874;6.964;2022-09-17T14:55:24;101019.00;;;17.72;67.51
28289;BME280;15558;50.874;6.964;2022-09-17T15:00:41;100994.53;;;17.59;67.93
28289;BME280;15558;50.874;6.964;2022-09-17T15:03:21;100994.81;;;17.66;67.46
28289;BME280;15558;50.874;6.964;2022-09-17T15:05:48;100994.34;;;17.56;67.87
28289;BME280;15558;50.874;6.964;2022-09-17T15:08:21;100983.66;;;17.61;67.96
28289;BME280;15558;50.874;6.964;2022-09-17T15:10:51;100995.50;;;17.63;67.48
28289;BME280;15558;50.874;6.964;2022-09-17T15:15:56;100986.13;;;17.62;67.17
28289;BME280;15558;50.874;6.964;2022-09-17T15:18:40;100987.34;;;17.53;67.54
28289;BME280;15558;50.874;6.964;2022-09-17T15:23:46;101005.53;;;17.52;67.10
28289;BME280;15558;50.874;6.964;2022-09-17T15:26:16;101013.25;;;17.43;67.25
28289;BME280;15558;50.874;6.964;2022-09-17T15:28:45;101011.41;;;17.47;68.25
28289;BME280;15558;50.874;6.964;2022-09-17T15:31:18;101015.28;;;17.43;67.54
28289;BME280;15558;50.874;6.964;2022-09-17T15:33:45;101018.78;;;17.31;67.69
28289;BME280;15558;50.874;6.964;2022-09-17T15:38:43;101015.47;;;17.29;68.36
28289;BME280;15558;50.874;6.964;2022-09-17T15:41:29;100995.59;;;17.29;68.43
28289;BME280;15558;50.874;6.964;2022-09-17T15:44:06;100980.13;;;17.19;69.02
28289;BME280;15558;50.874;6.964;2022-09-17T15:46:33;100986.97;;;17.18;69.62
28289;BME280;15558;50.874;6.964;2022-09-17T15:49:03;100992.94;;;17.24;69.44
28289;BME280;15558;50.874;6.964;2022-09-17T15:51:48;100999.13;;;17.26;69.86
28289;BME280;15558;50.874;6.964;2022-09-17T15:54:28;100999.31;;;17.22;69.58
28289;BME280;15558;50.874;6.964;2022-09-17T15:56:57;101000.63;;;17.24;68.90
28289;BME280;15558;50.874;6.964;2022-09-17T15:59:30;100997.44;;;17.25;68.96
28289;BME280;15558;50.874;6.964;2022-09-17T16:02:00;100996.28;;;17.26;68.67